Terminal Aerodrome Forecast
Issued by NWS

Home | Current Version | Previous Version | Text Only | Print | Product List | Glossary On
Versions: 1 2 3 4 5 6 7 8 9 10 11 12 13 14 15 16
000
FTUS44 KEWX 290700 AAA
TAFSSF
TAF AMD
KSSF 290708Z 2907/3006 VRB05KT P6SM SKC
     FM291700 15007KT P6SM SCT080 SCT200
     FM292100 14009KT P6SM BKN080 BKN200
     FM300400 16009KT P6SM SCT080 BKN200=

USA.gov is the U.S. government's official web portal to all federal, state and local government web resources and services.